sensor_id;sensor_type;location;lat;lon;timestamp;pressure;altitude;pressure_sealevel;temperature;humidity
28008;BME280;15333;50.010;20.020;2022-12-18T00:00:17;100239.09;;;-4.96;100.00
28008;BME280;15333;50.010;20.020;2022-12-18T00:03:39;100251.31;;;-4.95;100.00
28008;BME280;15333;50.010;20.020;2022-12-18T00:06:40;100251.31;;;-4.95;100.00
28008;BME280;15333;50.010;20.020;2022-12-18T00:09:41;100251.28;;;-4.98;100.00
28008;BME280;15333;50.010;20.020;2022-12-18T00:12:42;100256.53;;;-4.95;100.00
28008;BME280;15333;50.010;20.020;2022-12-18T00:15:43;100263.50;;;-4.97;100.00
28008;BME280;15333;50.010;20.020;2022-12-18T00:18:44;100261.72;;;-4.98;100.00
28008;BME280;15333;50.010;20.020;2022-12-18T00:21:45;100272.19;;;-4.95;100.00
28008;BME280;15333;50.010;20.020;2022-12-18T00:24:46;100280.88;;;-4.99;100.00
28008;BME280;15333;50.010;20.020;2022-12-18T00:27:47;100284.34;;;-4.99;100.00
28008;BME280;15333;50.010;20.020;2022-12-18T00:30:48;100287.84;;;-4.98;100.00
28008;BME280;15333;50.010;20.020;2022-12-18T00:33:54;100295.66;;;-5.00;100.00
28008;BME280;15333;50.010;20.020;2022-12-18T00:36:55;100290.38;;;-5.04;100.00
28008;BME280;15333;50.010;20.020;2022-12-18T00:39:56;100293.06;;;-4.95;100.00
28008;BME280;15333;50.010;20.020;2022-12-18T00:42:57;100297.38;;;-5.00;100.00
28008;BME280;15333;50.010;20.020;2022-12-18T00:45:58;100295.66;;;-4.98;100.00
28008;BME280;15333;50.010;20.020;2022-12-18T00:49:00;100310.50;;;-4.94;100.00
28008;BME280;15333;50.010;20.020;2022-12-18T00:52:01;100317.47;;;-4.93;100.00
28008;BME280;15333;50.010;20.020;2022-12-18T00:55:01;100322.69;;;-4.93;100.00
28008;BME280;15333;50.010;20.020;2022-12-18T00:58:02;100320.94;;;-4.94;100.00
28008;BME280;15333;50.010;20.020;2022-12-18T01:01:04;100320.91;;;-4.97;100.00
28008;BME280;15333;50.010;20.020;2022-12-18T01:04:08;100324.50;;;-4.86;100.00
28008;BME280;15333;50.010;20.020;2022-12-18T01:07:09;100321.81;;;-4.94;100.00
28008;BME280;15333;50.010;20.020;2022-12-18T01:10:11;100333.13;;;-4.93;100.00
28008;BME280;15333;50.010;20.020;2022-12-18T01:13:12;100342.72;;;-4.92;100.00
28008;BME280;15333;50.010;20.020;2022-12-18T01:16:16;100335.69;;;-4.96;100.00
28008;BME280;15333;50.010;20.020;2022-12-18T01:19:17;100337.44;;;-4.95;100.00
28008;BME280;15333;50.010;20.020;2022-12-18T01:22:18;100345.28;;;-4.95;100.00
28008;BME280;15333;50.010;20.020;2022-12-18T01:25:19;100345.25;;;-4.98;100.00
28008;BME280;15333;50.010;20.020;2022-12-18T01:28:20;100349.59;;;-4.99;100.00
28008;BME280;15333;50.010;20.020;2022-12-18T01:31:24;100348.78;;;-4.93;100.00
28008;BME280;15333;50.010;20.020;2022-12-18T01:34:25;100355.69;;;-4.98;100.00
28008;BME280;15333;50.010;20.020;2022-12-18T01:37:26;100361.00;;;-4.92;100.00
28008;BME280;15333;50.010;20.020;2022-12-18T01:40:27;100367.84;;;-5.00;100.00
28008;BME280;15333;50.010;20.020;2022-12-18T01:43:54;100366.06;;;-5.03;100.00
28008;BME280;15333;50.010;20.020;2022-12-18T01:46:55;100357.41;;;-5.00;100.00
28008;BME280;15333;50.010;20.020;2022-12-18T01:49:58;100360.06;;;-4.97;100.00
28008;BME280;15333;50.010;20.020;2022-12-18T01:53:05;100373.94;;;-5.01;100.00
28008;BME280;15333;50.010;20.020;2022-12-18T01:56:07;100376.59;;;-4.95;100.00
28008;BME280;15333;50.010;20.020;2022-12-18T01:59:11;100371.38;;;-4.95;100.00
28008;BME280;15333;50.010;20.020;2022-12-18T02:02:14;100374.91;;;-4.93;100.00
28008;BME280;15333;50.010;20.020;2022-12-18T02:15:20;100396.50;;;-5.03;100.00
28008;BME280;15333;50.010;20.020;2022-12-18T02:18:33;100396.63;;;-4.97;100.00
28008;BME280;15333;50.010;20.020;2022-12-18T02:28:15;100414.97;;;-4.91;100.00
28008;BME280;15333;50.010;20.020;2022-12-18T02:31:25;100418.34;;;-4.98;100.00
28008;BME280;15333;50.010;20.020;2022-12-18T02:34:30;100422.59;;;-5.03;100.00
28008;BME280;15333;50.010;20.020;2022-12-18T02:37:33;100416.59;;;-4.99;100.00
28008;BME280;15333;50.010;20.020;2022-12-18T02:40:38;100425.28;;;-5.00;100.00
28008;BME280;15333;50.010;20.020;2022-12-18T02:43:45;100422.66;;;-5.00;100.00
28008;BME280;15333;50.010;20.020;2022-12-18T02:46:50;100425.41;;;-4.91;100.00
28008;BME280;15333;50.010;20.020;2022-12-18T02:56:31;100434.00;;;-4.98;100.00
28008;BME280;15333;50.010;20.020;2022-12-18T02:59:43;100442.72;;;-4.96;100.00
28008;BME280;15333;50.010;20.020;2022-12-18T03:03:06;100445.34;;;-4.95;100.00
28008;BME280;15333;50.010;20.020;2022-12-18T03:06:17;100447.00;;;-5.01;100.00
28008;BME280;15333;50.010;20.020;2022-12-18T03:09:32;100442.63;;;-5.05;100.00
28008;BME280;15333;50.010;20.020;2022-12-18T03:12:38;100452.25;;;-5.00;100.00
28008;BME280;15333;50.010;20.020;2022-12-18T03:15:46;100455.69;;;-5.02;100.00
28008;BME280;15333;50.010;20.020;2022-12-18T03:18:55;100454.88;;;-5.00;100.00
28008;BME280;15333;50.010;20.020;2022-12-18T03:22:00;100462.66;;;-5.04;100.00
28008;BME280;15333;50.010;20.020;2022-12-18T03:25:11;100465.25;;;-5.04;100.00
28008;BME280;15333;50.010;20.020;2022-12-18T03:28:20;100467.09;;;-4.97;100.00
28008;BME280;15333;50.010;20.020;2022-12-18T03:31:23;100468.75;;;-5.02;100.00
28008;BME280;15333;50.010;20.020;2022-12-18T03:34:34;100474.91;;;-4.99;100.00
28008;BME280;15333;50.010;20.020;2022-12-18T03:37:38;100481.75;;;-5.04;100.00
28008;BME280;15333;50.010;20.020;2022-12-18T03:40:50;100487.84;;;-5.03;100.00
28008;BME280;15333;50.010;20.020;2022-12-18T03:47:15;100494.94;;;-4.96;100.00
28008;BME280;15333;50.010;20.020;2022-12-18T03:50:22;100498.34;;;-5.00;100.00
28008;BME280;15333;50.010;20.020;2022-12-18T03:53:32;100507.91;;;-5.01;100.00
28008;BME280;15333;50.010;20.020;2022-12-18T03:56:39;100490.50;;;-5.02;100.00
28008;BME280;15333;50.010;20.020;2022-12-18T03:59:44;100499.28;;;-4.98;100.00
28008;BME280;15333;50.010;20.020;2022-12-18T04:02:51;100498.34;;;-5.00;100.00
28008;BME280;15333;50.010;20.020;2022-12-18T04:05:59;100512.31;;;-4.98;100.00
28008;BME280;15333;50.010;20.020;2022-12-18T04:09:02;100520.94;;;-5.02;100.00
28008;BME280;15333;50.010;20.020;2022-12-18T04:12:06;100516.69;;;-4.97;100.00
28008;BME280;15333;50.010;20.020;2022-12-18T04:15:08;100514.03;;;-5.00;100.00
28008;BME280;15333;50.010;20.020;2022-12-18T04:18:10;100514.09;;;-4.94;100.00
28008;BME280;15333;50.010;20.020;2022-12-18T04:21:15;100520.06;;;-5.03;100.00
28008;BME280;15333;50.010;20.020;2022-12-18T04:24:16;100515.81;;;-4.96;100.00
28008;BME280;15333;50.010;20.020;2022-12-18T04:27:26;100513.19;;;-4.98;100.00
28008;BME280;15333;50.010;20.020;2022-12-18T04:30:27;100521.91;;;-4.96;100.00
28008;BME280;15333;50.010;20.020;2022-12-18T04:33:28;100531.59;;;-4.90;100.00
28008;BME280;15333;50.010;20.020;2022-12-18T04:36:29;100524.53;;;-4.97;100.00
28008;BME280;15333;50.010;20.020;2022-12-18T04:39:30;100534.84;;;-5.03;100.00
28008;BME280;15333;50.010;20.020;2022-12-18T04:42:36;100545.41;;;-4.96;100.00
28008;BME280;15333;50.010;20.020;2022-12-18T04:45:37;100549.75;;;-4.96;100.00
28008;BME280;15333;50.010;20.020;2022-12-18T04:48:38;100541.75;;;-5.08;100.00
28008;BME280;15333;50.010;20.020;2022-12-18T04:51:39;100543.56;;;-5.04;100.00
28008;BME280;15333;50.010;20.020;2022-12-18T04:54:39;100549.75;;;-4.98;100.00
28008;BME280;15333;50.010;20.020;2022-12-18T04:57:40;100551.44;;;-5.00;100.00
28008;BME280;15333;50.010;20.020;2022-12-18T05:00:41;100555.72;;;-5.03;100.00
28008;BME280;15333;50.010;20.020;2022-12-18T05:03:42;100554.03;;;-5.01;100.00
28008;BME280;15333;50.010;20.020;2022-12-18T05:06:43;100563.56;;;-5.03;100.00
28008;BME280;15333;50.010;20.020;2022-12-18T05:09:44;100568.00;;;-4.99;100.00
28008;BME280;15333;50.010;20.020;2022-12-18T05:12:45;100568.00;;;-4.99;100.00
28008;BME280;15333;50.010;20.020;2022-12-18T05:16:02;100573.13;;;-5.05;100.00
28008;BME280;15333;50.010;20.020;2022-12-18T05:19:03;100570.53;;;-5.02;100.00
28008;BME280;15333;50.010;20.020;2022-12-18T05:22:04;100571.59;;;-4.91;100.00
28008;BME280;15333;50.010;20.020;2022-12-18T05:25:06;100582.03;;;-4.91;100.00
28008;BME280;15333;50.010;20.020;2022-12-18T05:28:06;100581.00;;;-5.01;100.00
28008;BME280;15333;50.010;20.020;2022-12-18T05:31:08;100590.75;;;-4.89;100.00
28008;BME280;15333;50.010;20.020;2022-12-18T05:34:08;100583.75;;;-4.93;100.00
28008;BME280;15333;50.010;20.020;2022-12-18T05:37:09;100584.56;;;-4.96;100.00
28008;BME280;15333;50.010;20.020;2022-12-18T05:40:11;100576.72;;;-4.97;100.00
28008;BME280;15333;50.010;20.020;2022-12-18T05:43:12;100585.41;;;-4.98;100.00
28008;BME280;15333;50.010;20.020;2022-12-18T05:46:15;100590.66;;;-4.95;100.00
28008;BME280;15333;50.010;20.020;2022-12-18T05:49:18;100597.50;;;-5.03;100.00
28008;BME280;15333;50.010;20.020;2022-12-18T05:52:18;100601.16;;;-4.92;100.00
28008;BME280;15333;50.010;20.020;2022-12-18T05:55:19;100607.16;;;-4.96;100.00
28008;BME280;15333;50.010;20.020;2022-12-18T05:58:20;100605.56;;;-4.88;100.00
28008;BME280;15333;50.010;20.020;2022-12-18T06:01:24;100623.75;;;-4.94;100.00
28008;BME280;15333;50.010;20.020;2022-12-18T06:04:27;100625.31;;;-5.05;100.00
28008;BME280;15333;50.010;20.020;2022-12-18T06:07:29;100620.97;;;-5.03;100.00
28008;BME280;15333;50.010;20.020;2022-12-18T06:10:30;100630.59;;;-5.01;100.00
28008;BME280;15333;50.010;20.020;2022-12-18T06:13:31;100637.72;;;-4.92;100.00
28008;BME280;15333;50.010;20.020;2022-12-18T06:16:32;100638.47;;;-4.99;100.00
28008;BME280;15333;50.010;20.020;2022-12-18T06:19:33;100644.59;;;-4.97;100.00
28008;BME280;15333;50.010;20.020;2022-12-18T06:22:34;100650.81;;;-4.91;100.00
28008;BME280;15333;50.010;20.020;2022-12-18T06:25:38;100655.88;;;-4.98;100.00
28008;BME280;15333;50.010;20.020;2022-12-18T06:28:39;100641.16;;;-4.93;100.00
28008;BME280;15333;50.010;20.020;2022-12-18T06:31:40;100647.09;;;-5.03;100.00
28008;BME280;15333;50.010;20.020;2022-12-18T06:34:41;100647.22;;;-4.97;100.00
28008;BME280;15333;50.010;20.020;2022-12-18T06:37:42;100648.00;;;-5.01;100.00
28008;BME280;15333;50.010;20.020;2022-12-18T06:40:42;100658.50;;;-4.98;100.00
28008;BME280;15333;50.010;20.020;2022-12-18T06:43:44;100661.03;;;-5.01;100.00
28008;BME280;15333;50.010;20.020;2022-12-18T06:46:45;100675.75;;;-5.06;100.00
28008;BME280;15333;50.010;20.020;2022-12-18T06:49:46;100664.59;;;-4.96;100.00
28008;BME280;15333;50.010;20.020;2022-12-18T06:52:47;100675.22;;;-4.87;100.00
28008;BME280;15333;50.010;20.020;2022-12-18T06:55:48;100676.06;;;-4.88;100.00
28008;BME280;15333;50.010;20.020;2022-12-18T06:58:49;100677.78;;;-4.90;100.00
28008;BME280;15333;50.010;20.020;2022-12-18T07:01:50;100677.78;;;-4.90;100.00
28008;BME280;15333;50.010;20.020;2022-12-18T07:04:51;100686.50;;;-4.88;100.00
28008;BME280;15333;50.010;20.020;2022-12-18T07:07:52;100693.50;;;-4.86;100.00
28008;BME280;15333;50.010;20.020;2022-12-18T07:10:52;100697.88;;;-4.85;100.00
28008;BME280;15333;50.010;20.020;2022-12-18T07:13:54;100705.75;;;-4.83;100.00
28008;BME280;15333;50.010;20.020;2022-12-18T07:16:55;100701.41;;;-4.81;100.00
28008;BME280;15333;50.010;20.020;2022-12-18T07:19:56;100711.78;;;-4.86;100.00
28008;BME280;15333;50.010;20.020;2022-12-18T07:22:57;100718.88;;;-4.79;100.00
28008;BME280;15333;50.010;20.020;2022-12-18T07:26:18;100718.72;;;-4.88;100.00
28008;BME280;15333;50.010;20.020;2022-12-18T07:29:20;100714.53;;;-4.78;100.00
28008;BME280;15333;50.010;20.020;2022-12-18T07:32:21;100716.38;;;-4.72;100.00
28008;BME280;15333;50.010;20.020;2022-12-18T07:35:21;100729.66;;;-4.59;100.00
28008;BME280;15333;50.010;20.020;2022-12-18T07:38:23;100744.31;;;-4.67;100.00
28008;BME280;15333;50.010;20.020;2022-12-18T07:41:23;100741.94;;;-4.52;100.00
28008;BME280;15333;50.010;20.020;2022-12-18T07:44:24;100749.06;;;-4.43;100.00
28008;BME280;15333;50.010;20.020;2022-12-18T07:47:25;100753.34;;;-4.47;100.00
28008;BME280;15333;50.010;20.020;2022-12-18T07:50:26;100759.31;;;-4.55;100.00
28008;BME280;15333;50.010;20.020;2022-12-18T07:53:27;100751.81;;;-4.36;100.00
28008;BME280;15333;50.010;20.020;2022-12-18T07:56:28;100763.88;;;-4.44;100.00
28008;BME280;15333;50.010;20.020;2022-12-18T07:59:29;100761.28;;;-4.42;99.89
28008;BME280;15333;50.010;20.020;2022-12-18T08:02:31;100766.53;;;-4.39;98.81
28008;BME280;15333;50.010;20.020;2022-12-18T08:05:32;100763.06;;;-4.38;99.46
28008;BME280;15333;50.010;20.020;2022-12-18T08:08:34;100771.03;;;-4.30;98.61
28008;BME280;15333;50.010;20.020;2022-12-18T08:11:35;100769.50;;;-4.19;98.31
28008;BME280;15333;50.010;20.020;2022-12-18T08:14:36;100769.38;;;-4.25;100.00
28008;BME280;15333;50.010;20.020;2022-12-18T08:17:37;100766.88;;;-4.18;99.22
28008;BME280;15333;50.010;20.020;2022-12-18T08:20:38;100770.56;;;-4.04;98.35
28008;BME280;15333;50.010;20.020;2022-12-18T08:23:39;100778.50;;;-3.98;99.14
28008;BME280;15333;50.010;20.020;2022-12-18T08:26:40;100782.13;;;-3.91;99.98
28008;BME280;15333;50.010;20.020;2022-12-18T08:29:41;100777.97;;;-3.77;98.11
28008;BME280;15333;50.010;20.020;2022-12-18T08:32:42;100781.63;;;-3.64;97.33
28008;BME280;15333;50.010;20.020;2022-12-18T08:35:43;100786.94;;;-3.58;95.76
28008;BME280;15333;50.010;20.020;2022-12-18T08:38:44;100777.19;;;-3.70;95.98
28008;BME280;15333;50.010;20.020;2022-12-18T08:41:45;100778.75;;;-3.81;96.44
28008;BME280;15333;50.010;20.020;2022-12-18T08:45:06;100783.41;;;-3.60;95.98
28008;BME280;15333;50.010;20.020;2022-12-18T08:48:07;100788.50;;;-3.69;96.08
28008;BME280;15333;50.010;20.020;2022-12-18T08:51:09;100787.63;;;-3.71;96.47
28008;BME280;15333;50.010;20.020;2022-12-18T08:54:13;100794.94;;;-3.44;94.80
28008;BME280;15333;50.010;20.020;2022-12-18T08:57:16;100799.19;;;-3.52;95.24
28008;BME280;15333;50.010;20.020;2022-12-18T09:00:17;100805.63;;;-3.29;94.98
28008;BME280;15333;50.010;20.020;2022-12-18T09:03:19;100803.91;;;-3.26;93.21
28008;BME280;15333;50.010;20.020;2022-12-18T09:06:21;100807.44;;;-3.22;94.82
28008;BME280;15333;50.010;20.020;2022-12-18T09:09:22;100807.47;;;-3.19;92.39
28008;BME280;15333;50.010;20.020;2022-12-18T09:12:23;100805.88;;;-3.05;91.65
28008;BME280;15333;50.010;20.020;2022-12-18T09:15:24;100802.41;;;-3.07;92.63
28008;BME280;15333;50.010;20.020;2022-12-18T09:18:25;100807.09;;;-2.79;90.53
28008;BME280;15333;50.010;20.020;2022-12-18T09:21:28;100809.72;;;-2.76;89.68
28008;BME280;15333;50.010;20.020;2022-12-18T09:24:29;100811.28;;;-2.93;91.24
28008;BME280;15333;50.010;20.020;2022-12-18T09:27:30;100816.38;;;-3.05;91.94
28008;BME280;15333;50.010;20.020;2022-12-18T09:30:31;100821.66;;;-3.02;91.11
28008;BME280;15333;50.010;20.020;2022-12-18T09:33:36;100827.06;;;-2.87;90.78
28008;BME280;15333;50.010;20.020;2022-12-18T09:36:37;100822.22;;;-3.27;91.72
28008;BME280;15333;50.010;20.020;2022-12-18T09:39:38;100820.00;;;-2.94;90.96
28008;BME280;15333;50.010;20.020;2022-12-18T09:42:39;100821.00;;;-2.83;90.57
28008;BME280;15333;50.010;20.020;2022-12-18T09:45:43;100814.78;;;-2.94;90.53
28008;BME280;15333;50.010;20.020;2022-12-18T09:48:49;100813.19;;;-2.80;88.72
28008;BME280;15333;50.010;20.020;2022-12-18T09:51:56;100820.25;;;-2.72;88.59
28008;BME280;15333;50.010;20.020;2022-12-18T09:58:31;100824.56;;;-2.74;87.69
28008;BME280;15333;50.010;20.020;2022-12-18T10:01:34;100826.06;;;-2.96;88.14
28008;BME280;15333;50.010;20.020;2022-12-18T10:04:35;100819.31;;;-2.78;88.00
28008;BME280;15333;50.010;20.020;2022-12-18T10:11:01;100820.00;;;-2.94;88.51
28008;BME280;15333;50.010;20.020;2022-12-18T10:20:45;100816.16;;;-3.23;88.93
28008;BME280;15333;50.010;20.020;2022-12-18T10:23:57;100822.91;;;-3.40;88.62
28008;BME280;15333;50.010;20.020;2022-12-18T10:27:28;100821.06;;;-3.47;90.09
28008;BME280;15333;50.010;20.020;2022-12-18T10:30:30;100823.59;;;-3.57;91.63
28008;BME280;15333;50.010;20.020;2022-12-18T10:33:32;100817.69;;;-3.42;90.48
28008;BME280;15333;50.010;20.020;2022-12-18T10:36:34;100813.31;;;-3.41;90.65
28008;BME280;15333;50.010;20.020;2022-12-18T10:39:35;100813.28;;;-3.44;89.49
28008;BME280;15333;50.010;20.020;2022-12-18T10:42:36;100804.50;;;-3.49;89.73
28008;BME280;15333;50.010;20.020;2022-12-18T10:45:37;100808.97;;;-3.39;89.50
28008;BME280;15333;50.010;20.020;2022-12-18T10:51:41;100807.38;;;-3.28;89.62
28008;BME280;15333;50.010;20.020;2022-12-18T10:55:03;100803.03;;;-3.26;89.04
28008;BME280;15333;50.010;20.020;2022-12-18T10:58:27;100805.63;;;-3.26;88.00
28008;BME280;15333;50.010;20.020;2022-12-18T11:02:10;100801.19;;;-3.35;89.69
28008;BME280;15333;50.010;20.020;2022-12-18T11:05:31;100798.69;;;-3.24;88.32
28008;BME280;15333;50.010;20.020;2022-12-18T11:08:32;100791.75;;;-3.19;88.56
28008;BME280;15333;50.010;20.020;2022-12-18T11:11:33;100790.19;;;-3.05;87.17
28008;BME280;15333;50.010;20.020;2022-12-18T11:14:48;100786.69;;;-3.04;86.77
28008;BME280;15333;50.010;20.020;2022-12-18T11:17:51;100784.75;;;-3.23;87.11
28008;BME280;15333;50.010;20.020;2022-12-18T11:20:59;100773.50;;;-3.14;85.80
28008;BME280;15333;50.010;20.020;2022-12-18T11:24:00;100767.34;;;-3.18;85.87
28008;BME280;15333;50.010;20.020;2022-12-18T11:27:05;100774.13;;;-3.35;85.52
28008;BME280;15333;50.010;20.020;2022-12-18T11:30:28;100767.06;;;-3.42;84.07
28008;BME280;15333;50.010;20.020;2022-12-18T11:33:29;100765.31;;;-3.40;84.08
28008;BME280;15333;50.010;20.020;2022-12-18T11:36:36;100762.72;;;-3.39;84.34
28008;BME280;15333;50.010;20.020;2022-12-18T11:39:44;100781.19;;;-3.28;84.77
28008;BME280;15333;50.010;20.020;2022-12-18T11:42:54;100776.16;;;-3.13;84.60
28008;BME280;15333;50.010;20.020;2022-12-18T11:46:04;100774.41;;;-3.11;84.10
28008;BME280;15333;50.010;20.020;2022-12-18T11:49:12;100778.53;;;-3.31;84.08
28008;BME280;15333;50.010;20.020;2022-12-18T11:52:19;100782.72;;;-3.45;83.62
28008;BME280;15333;50.010;20.020;2022-12-18T12:23:18;100781.28;;;-3.19;84.81
28008;BME280;15333;50.010;20.020;2022-12-18T12:26:35;100780.34;;;-3.27;84.62
28008;BME280;15333;50.010;20.020;2022-12-18T12:36:31;100797.22;;;-3.01;84.61
28008;BME280;15333;50.010;20.020;2022-12-18T12:39:38;100808.25;;;-3.29;85.13
28008;BME280;15333;50.010;20.020;2022-12-18T12:42:44;100814.25;;;-3.36;85.69
28008;BME280;15333;50.010;20.020;2022-12-18T12:46:07;100824.75;;;-3.33;85.59
28008;BME280;15333;50.010;20.020;2022-12-18T12:49:13;100829.66;;;-3.58;86.43
28008;BME280;15333;50.010;20.020;2022-12-18T12:52:40;100830.34;;;-3.71;88.03
28008;BME280;15333;50.010;20.020;2022-12-18T12:55:42;100836.28;;;-3.81;88.86
28008;BME280;15333;50.010;20.020;2022-12-18T13:02:26;100834.44;;;-3.88;89.41
28008;BME280;15333;50.010;20.020;2022-12-18T13:08:53;100850.13;;;-3.88;90.12
28008;BME280;15333;50.010;20.020;2022-12-18T13:12:02;100852.66;;;-3.94;90.76
28008;BME280;15333;50.010;20.020;2022-12-18T13:18:25;100860.41;;;-4.00;91.53
28008;BME280;15333;50.010;20.020;2022-12-18T13:21:29;100855.13;;;-4.03;92.10
28008;BME280;15333;50.010;20.020;2022-12-18T13:24:31;100858.56;;;-4.07;92.29
28008;BME280;15333;50.010;20.020;2022-12-18T13:27:46;100865.56;;;-4.06;91.85
28008;BME280;15333;50.010;20.020;2022-12-18T13:30:56;100861.19;;;-4.04;91.55
28008;BME280;15333;50.010;20.020;2022-12-18T13:34:27;100857.59;;;-4.11;93.11
28008;BME280;15333;50.010;20.020;2022-12-18T13:37:40;100863.94;;;-3.98;92.60
28008;BME280;15333;50.010;20.020;2022-12-18T13:46:50;100882.16;;;-4.03;90.66
28008;BME280;15333;50.010;20.020;2022-12-18T13:49:52;100878.88;;;-3.89;90.36
28008;BME280;15333;50.010;20.020;2022-12-18T13:52:53;100888.25;;;-4.02;91.77
28008;BME280;15333;50.010;20.020;2022-12-18T13:55:54;100894.88;;;-4.22;93.13
28008;BME280;15333;50.010;20.020;2022-12-18T13:59:16;100898.97;;;-4.38;94.05
28008;BME280;15333;50.010;20.020;2022-12-18T14:02:22;100901.44;;;-4.46;94.96
28008;BME280;15333;50.010;20.020;2022-12-18T14:08:27;100895.81;;;-4.67;96.70
28008;BME280;15333;50.010;20.020;2022-12-18T14:11:31;100913.81;;;-4.81;96.37
28008;BME280;15333;50.010;20.020;2022-12-18T14:14:33;100918.88;;;-4.88;96.15
28008;BME280;15333;50.010;20.020;2022-12-18T14:17:33;100915.81;;;-5.09;97.35
28008;BME280;15333;50.010;20.020;2022-12-18T14:20:35;100920.78;;;-5.22;98.05
28008;BME280;15333;50.010;20.020;2022-12-18T14:23:41;100919.59;;;-5.36;99.06
28008;BME280;15333;50.010;20.020;2022-12-18T14:26:43;100929.84;;;-5.43;99.76
28008;BME280;15333;50.010;20.020;2022-12-18T14:29:44;100935.59;;;-5.58;100.00
28008;BME280;15333;50.010;20.020;2022-12-18T14:32:59;100930.16;;;-5.67;100.00
28008;BME280;15333;50.010;20.020;2022-12-18T14:36:03;100922.88;;;-5.80;100.00
28008;BME280;15333;50.010;20.020;2022-12-18T14:39:04;100927.91;;;-5.89;100.00
28008;BME280;15333;50.010;20.020;2022-12-18T14:42:05;100926.78;;;-6.01;100.00
28008;BME280;15333;50.010;20.020;2022-12-18T14:45:37;100934.28;;;-6.13;100.00
28008;BME280;15333;50.010;20.020;2022-12-18T14:48:42;100941.94;;;-6.19;100.00
28008;BME280;15333;50.010;20.020;2022-12-18T14:51:50;100943.53;;;-6.25;100.00
28008;BME280;15333;50.010;20.020;2022-12-18T14:54:52;100950.19;;;-6.35;100.00
28008;BME280;15333;50.010;20.020;2022-12-18T14:57:54;100950.03;;;-6.41;100.00
28008;BME280;15333;50.010;20.020;2022-12-18T15:00:56;100945.50;;;-6.48;100.00
28008;BME280;15333;50.010;20.020;2022-12-18T15:03:58;100951.44;;;-6.54;100.00
28008;BME280;15333;50.010;20.020;2022-12-18T15:07:18;100941.47;;;-6.68;100.00
28008;BME280;15333;50.010;20.020;2022-12-18T15:10:23;100941.00;;;-6.85;100.00
28008;BME280;15333;50.010;20.020;2022-12-18T15:13:25;100932.66;;;-7.03;100.00
28008;BME280;15333;50.010;20.020;2022-12-18T15:16:26;100948.94;;;-7.10;100.00
28008;BME280;15333;50.010;20.020;2022-12-18T15:19:41;100950.44;;;-7.17;100.00
28008;BME280;15333;50.010;20.020;2022-12-18T15:22:47;100953.44;;;-7.33;100.00
28008;BME280;15333;50.010;20.020;2022-12-18T15:25:56;100954.53;;;-7.54;100.00
28008;BME280;15333;50.010;20.020;2022-12-18T15:28:58;100951.41;;;-7.70;100.00
28008;BME280;15333;50.010;20.020;2022-12-18T15:32:04;100953.34;;;-7.90;100.00
28008;BME280;15333;50.010;20.020;2022-12-18T15:38:14;100966.47;;;-8.12;100.00
28008;BME280;15333;50.010;20.020;2022-12-18T15:41:17;100971.47;;;-8.17;100.00
28008;BME280;15333;50.010;20.020;2022-12-18T15:44:23;100981.03;;;-8.16;100.00
28008;BME280;15333;50.010;20.020;2022-12-18T15:47:25;100978.63;;;-8.11;100.00
28008;BME280;15333;50.010;20.020;2022-12-18T15:50:26;100976.63;;;-7.93;100.00
28008;BME280;15333;50.010;20.020;2022-12-18T15:53:32;100983.06;;;-7.82;100.00
28008;BME280;15333;50.010;20.020;2022-12-18T15:56:34;100978.66;;;-7.58;100.00
28008;BME280;15333;50.010;20.020;2022-12-18T15:59:55;100987.59;;;-7.49;100.00
28008;BME280;15333;50.010;20.020;2022-12-18T16:02:59;100992.91;;;-7.46;100.00
28008;BME280;15333;50.010;20.020;2022-12-18T16:06:01;100989.16;;;-7.55;100.00
28008;BME280;15333;50.010;20.020;2022-12-18T16:09:02;100983.97;;;-7.55;100.00
28008;BME280;15333;50.010;20.020;2022-12-18T16:12:05;100988.88;;;-7.64;100.00
28008;BME280;15333;50.010;20.020;2022-12-18T16:15:07;100990.25;;;-7.73;100.00
28008;BME280;15333;50.010;20.020;2022-12-18T16:18:08;101005.72;;;-7.78;100.00
28008;BME280;15333;50.010;20.020;2022-12-18T16:21:09;101002.97;;;-7.82;100.00
28008;BME280;15333;50.010;20.020;2022-12-18T16:24:16;101003.50;;;-7.93;100.00
28008;BME280;15333;50.010;20.020;2022-12-18T16:27:17;100991.94;;;-8.01;100.00
28008;BME280;15333;50.010;20.020;2022-12-18T16:30:21;101007.88;;;-8.15;100.00
28008;BME280;15333;50.010;20.020;2022-12-18T16:33:22;101012.78;;;-8.24;100.00
28008;BME280;15333;50.010;20.020;2022-12-18T16:36:24;101016.03;;;-8.32;100.00
28008;BME280;15333;50.010;20.020;2022-12-18T16:39:25;101021.66;;;-8.43;100.00
28008;BME280;15333;50.010;20.020;2022-12-18T16:42:27;101014.91;;;-8.62;100.00
28008;BME280;15333;50.010;20.020;2022-12-18T16:45:27;101029.91;;;-8.77;100.00
28008;BME280;15333;50.010;20.020;2022-12-18T16:48:34;101035.94;;;-9.00;100.00
28008;BME280;15333;50.010;20.020;2022-12-18T16:51:34;101039.03;;;-9.11;100.00
28008;BME280;15333;50.010;20.020;2022-12-18T16:54:36;101040.19;;;-9.25;100.00
28008;BME280;15333;50.010;20.020;2022-12-18T16:57:37;101037.94;;;-9.38;100.00
28008;BME280;15333;50.010;20.020;2022-12-18T17:00:38;101027.81;;;-9.32;100.00
28008;BME280;15333;50.010;20.020;2022-12-18T17:03:40;101033.59;;;-9.37;100.00
28008;BME280;15333;50.010;20.020;2022-12-18T17:06:44;101035.94;;;-9.45;100.00
28008;BME280;15333;50.010;20.020;2022-12-18T17:09:45;101030.59;;;-9.48;100.00
28008;BME280;15333;50.010;20.020;2022-12-18T17:12:46;101034.31;;;-9.41;100.00
28008;BME280;15333;50.010;20.020;2022-12-18T17:15:47;101046.22;;;-9.46;100.00
28008;BME280;15333;50.010;20.020;2022-12-18T17:18:48;101038.56;;;-9.43;100.00
28008;BME280;15333;50.010;20.020;2022-12-18T17:21:49;101036.78;;;-9.65;100.00